sensor_id;sensor_type;location;lat;lon;timestamp;temperature;humidity
11009;DHT22;5557;51.670;7.788;2023-03-16T00:00:00;1.60;8.90
11009;DHT22;5557;51.670;7.788;2023-03-16T00:02:27;1.60;9.70
11009;DHT22;5557;51.670;7.788;2023-03-16T00:04:54;1.60;9.40
11009;DHT22;5557;51.670;7.788;2023-03-16T00:07:21;1.60;10.10
11009;DHT22;5557;51.670;7.788;2023-03-16T00:09:48;1.60;10.00
11009;DHT22;5557;51.670;7.788;2023-03-16T00:12:17;1.40;10.90
11009;DHT22;5557;51.670;7.788;2023-03-16T00:14:46;1.40;12.50
11009;DHT22;5557;51.670;7.788;2023-03-16T00:17:15;1.40;13.00
11009;DHT22;5557;51.670;7.788;2023-03-16T00:19:47;1.40;13.00
11009;DHT22;5557;51.670;7.788;2023-03-16T00:22:15;1.40;13.00
11009;DHT22;5557;51.670;7.788;2023-03-16T00:24:42;1.40;13.00
11009;DHT22;5557;51.670;7.788;2023-03-16T00:27:11;1.50;12.90
11009;DHT22;5557;51.670;7.788;2023-03-16T00:29:43;1.50;11.60
11009;DHT22;5557;51.670;7.788;2023-03-16T00:32:16;1.60;11.50
11009;DHT22;5557;51.670;7.788;2023-03-16T00:34:44;1.60;10.30
11009;DHT22;5557;51.670;7.788;2023-03-16T00:37:13;1.60;10.00
11009;DHT22;5557;51.670;7.788;2023-03-16T00:39:42;1.60;10.00
11009;DHT22;5557;51.670;7.788;2023-03-16T00:42:11;1.50;10.60
11009;DHT22;5557;51.670;7.788;2023-03-16T00:44:38;1.50;11.30
11009;DHT22;5557;51.670;7.788;2023-03-16T00:47:08;1.50;11.20
11009;DHT22;5557;51.670;7.788;2023-03-16T00:49:35;1.50;11.00
11009;DHT22;5557;51.670;7.788;2023-03-16T00:52:04;1.50;10.90
11009;DHT22;5557;51.670;7.788;2023-03-16T00:54:32;1.50;10.30
11009;DHT22;5557;51.670;7.788;2023-03-16T00:57:00;1.50;9.30
11009;DHT22;5557;51.670;7.788;2023-03-16T00:59:28;1.60;8.80
11009;DHT22;5557;51.670;7.788;2023-03-16T01:01:56;1.50;8.70
11009;DHT22;5557;51.670;7.788;2023-03-16T01:04:22;1.50;8.70
11009;DHT22;5557;51.670;7.788;2023-03-16T01:06:50;1.50;7.90
11009;DHT22;5557;51.670;7.788;2023-03-16T01:09:17;1.60;7.10
11009;DHT22;5557;51.670;7.788;2023-03-16T01:11:45;1.60;7.20
11009;DHT22;5557;51.670;7.788;2023-03-16T01:14:15;1.60;6.70
11009;DHT22;5557;51.670;7.788;2023-03-16T01:16:41;1.60;6.90
11009;DHT22;5557;51.670;7.788;2023-03-16T01:19:12;1.60;6.80
11009;DHT22;5557;51.670;7.788;2023-03-16T01:21:40;1.50;7.20
11009;DHT22;5557;51.670;7.788;2023-03-16T01:24:08;1.40;8.10
11009;DHT22;5557;51.670;7.788;2023-03-16T01:26:36;1.40;8.20
11009;DHT22;5557;51.670;7.788;2023-03-16T01:29:02;1.30;8.50
11009;DHT22;5557;51.670;7.788;2023-03-16T01:31:30;1.10;8.90
11009;DHT22;5557;51.670;7.788;2023-03-16T01:33:57;1.10;10.80
11009;DHT22;5557;51.670;7.788;2023-03-16T01:36:24;1.00;11.20
11009;DHT22;5557;51.670;7.788;2023-03-16T01:38:51;0.90;12.10
11009;DHT22;5557;51.670;7.788;2023-03-16T01:41:18;0.80;13.00
11009;DHT22;5557;51.670;7.788;2023-03-16T01:43:45;0.80;14.10
11009;DHT22;5557;51.670;7.788;2023-03-16T01:46:20;0.80;13.50
11009;DHT22;5557;51.670;7.788;2023-03-16T01:49:13;0.90;12.60
11009;DHT22;5557;51.670;7.788;2023-03-16T01:52:01;0.90;12.00
11009;DHT22;5557;51.670;7.788;2023-03-16T01:54:32;0.90;10.50
11009;DHT22;5557;51.670;7.788;2023-03-16T01:57:14;1.00;9.00
11009;DHT22;5557;51.670;7.788;2023-03-16T02:00:21;0.90;8.60
11009;DHT22;5557;51.670;7.788;2023-03-16T02:02:52;1.00;8.30
11009;DHT22;5557;51.670;7.788;2023-03-16T02:05:36;1.00;7.40
11009;DHT22;5557;51.670;7.788;2023-03-16T02:08:04;1.00;6.80
11009;DHT22;5557;51.670;7.788;2023-03-16T02:10:32;1.00;5.80
11009;DHT22;5557;51.670;7.788;2023-03-16T02:13:00;1.00;4.80
11009;DHT22;5557;51.670;7.788;2023-03-16T02:15:27;1.00;4.80
11009;DHT22;5557;51.670;7.788;2023-03-16T02:17:55;1.00;5.10
11009;DHT22;5557;51.670;7.788;2023-03-16T02:20:51;1.00;4.80
11009;DHT22;5557;51.670;7.788;2023-03-16T02:23:24;0.90;5.40
11009;DHT22;5557;51.670;7.788;2023-03-16T02:26:02;0.90;5.50
11009;DHT22;5557;51.670;7.788;2023-03-16T02:31:58;1.10;3.10
11009;DHT22;5557;51.670;7.788;2023-03-16T02:34:26;1.20;1.70
11009;DHT22;5557;51.670;7.788;2023-03-16T02:36:53;1.30;1.10
11009;DHT22;5557;51.670;7.788;2023-03-16T02:39:21;1.30;1.00
11009;DHT22;5557;51.670;7.788;2023-03-16T02:41:49;1.40;1.00
11009;DHT22;5557;51.670;7.788;2023-03-16T02:44:25;1.50;1.00
11009;DHT22;5557;51.670;7.788;2023-03-16T02:46:59;1.60;1.00
11009;DHT22;5557;51.670;7.788;2023-03-16T02:49:37;1.70;1.00
11009;DHT22;5557;51.670;7.788;2023-03-16T02:52:05;1.90;1.00
11009;DHT22;5557;51.670;7.788;2023-03-16T02:54:32;2.00;1.00
11009;DHT22;5557;51.670;7.788;2023-03-16T02:56:59;2.10;1.00
11009;DHT22;5557;51.670;7.788;2023-03-16T02:59:26;2.20;1.00
11009;DHT22;5557;51.670;7.788;2023-03-16T03:01:53;2.20;1.00
11009;DHT22;5557;51.670;7.788;2023-03-16T03:04:20;2.20;1.00
11009;DHT22;5557;51.670;7.788;2023-03-16T03:06:49;2.30;1.00
11009;DHT22;5557;51.670;7.788;2023-03-16T03:09:17;2.30;1.00
11009;DHT22;5557;51.670;7.788;2023-03-16T03:11:45;2.30;1.00
11009;DHT22;5557;51.670;7.788;2023-03-16T03:14:12;2.30;1.00
11009;DHT22;5557;51.670;7.788;2023-03-16T03:16:42;2.30;1.00
11009;DHT22;5557;51.670;7.788;2023-03-16T03:19:12;2.30;1.00
11009;DHT22;5557;51.670;7.788;2023-03-16T03:21:40;2.30;1.00
11009;DHT22;5557;51.670;7.788;2023-03-16T03:24:08;2.40;1.00
11009;DHT22;5557;51.670;7.788;2023-03-16T03:26:35;2.40;1.00
11009;DHT22;5557;51.670;7.788;2023-03-16T03:29:05;2.40;1.00
11009;DHT22;5557;51.670;7.788;2023-03-16T03:31:32;2.40;1.00
11009;DHT22;5557;51.670;7.788;2023-03-16T03:34:00;2.50;1.00
11009;DHT22;5557;51.670;7.788;2023-03-16T03:36:33;2.50;1.00
11009;DHT22;5557;51.670;7.788;2023-03-16T03:39:01;2.60;1.00
11009;DHT22;5557;51.670;7.788;2023-03-16T03:41:31;2.70;1.00
11009;DHT22;5557;51.670;7.788;2023-03-16T03:43:59;2.80;1.00
11009;DHT22;5557;51.670;7.788;2023-03-16T03:46:26;2.80;1.00
11009;DHT22;5557;51.670;7.788;2023-03-16T03:48:53;2.90;1.00
11009;DHT22;5557;51.670;7.788;2023-03-16T03:51:20;2.90;1.00
11009;DHT22;5557;51.670;7.788;2023-03-16T03:53:47;3.00;1.00
11009;DHT22;5557;51.670;7.788;2023-03-16T03:56:14;3.00;1.00
11009;DHT22;5557;51.670;7.788;2023-03-16T03:58:41;3.00;1.00
11009;DHT22;5557;51.670;7.788;2023-03-16T04:01:08;3.10;1.00
11009;DHT22;5557;51.670;7.788;2023-03-16T04:03:35;3.20;1.00
11009;DHT22;5557;51.670;7.788;2023-03-16T04:06:02;3.30;1.00
11009;DHT22;5557;51.670;7.788;2023-03-16T04:08:29;3.30;1.00
11009;DHT22;5557;51.670;7.788;2023-03-16T04:10:55;3.40;1.00
11009;DHT22;5557;51.670;7.788;2023-03-16T04:13:22;3.40;1.00
11009;DHT22;5557;51.670;7.788;2023-03-16T04:15:58;3.40;1.00
11009;DHT22;5557;51.670;7.788;2023-03-16T04:18:25;3.40;1.00
11009;DHT22;5557;51.670;7.788;2023-03-16T04:20:52;3.40;1.00
11009;DHT22;5557;51.670;7.788;2023-03-16T04:23:20;3.40;1.00
11009;DHT22;5557;51.670;7.788;2023-03-16T04:25:47;3.40;1.00
11009;DHT22;5557;51.670;7.788;2023-03-16T04:28:14;3.40;1.00
11009;DHT22;5557;51.670;7.788;2023-03-16T04:30:43;3.50;1.00
11009;DHT22;5557;51.670;7.788;2023-03-16T04:33:10;3.50;1.00
11009;DHT22;5557;51.670;7.788;2023-03-16T04:35:37;3.50;1.00
11009;DHT22;5557;51.670;7.788;2023-03-16T04:38:04;3.50;1.00
11009;DHT22;5557;51.670;7.788;2023-03-16T04:40:31;3.50;1.00
11009;DHT22;5557;51.670;7.788;2023-03-16T04:42:58;3.50;1.00
11009;DHT22;5557;51.670;7.788;2023-03-16T04:45:25;3.50;1.00
11009;DHT22;5557;51.670;7.788;2023-03-16T04:47:52;3.60;1.00
11009;DHT22;5557;51.670;7.788;2023-03-16T04:50:19;3.60;1.00
11009;DHT22;5557;51.670;7.788;2023-03-16T04:52:46;3.50;1.00
11009;DHT22;5557;51.670;7.788;2023-03-16T04:55:13;3.50;1.00
11009;DHT22;5557;51.670;7.788;2023-03-16T04:57:40;3.60;1.00
11009;DHT22;5557;51.670;7.788;2023-03-16T05:00:07;3.60;1.00
11009;DHT22;5557;51.670;7.788;2023-03-16T05:02:37;3.60;1.00
11009;DHT22;5557;51.670;7.788;2023-03-16T05:05:05;3.60;1.00
11009;DHT22;5557;51.670;7.788;2023-03-16T05:07:33;3.60;1.00
11009;DHT22;5557;51.670;7.788;2023-03-16T05:10:00;3.50;1.00
11009;DHT22;5557;51.670;7.788;2023-03-16T05:12:27;3.50;1.00
11009;DHT22;5557;51.670;7.788;2023-03-16T05:14:54;3.50;1.00
11009;DHT22;5557;51.670;7.788;2023-03-16T05:17:21;3.60;1.00
11009;DHT22;5557;51.670;7.788;2023-03-16T05:19:47;3.50;1.00
11009;DHT22;5557;51.670;7.788;2023-03-16T05:22:15;3.60;1.00
11009;DHT22;5557;51.670;7.788;2023-03-16T05:24:42;3.50;1.00
11009;DHT22;5557;51.670;7.788;2023-03-16T05:27:08;3.60;1.00
11009;DHT22;5557;51.670;7.788;2023-03-16T05:29:36;3.60;1.00
11009;DHT22;5557;51.670;7.788;2023-03-16T05:32:03;3.70;1.00
11009;DHT22;5557;51.670;7.788;2023-03-16T05:34:30;3.70;1.00
11009;DHT22;5557;51.670;7.788;2023-03-16T05:36:57;3.70;1.00
11009;DHT22;5557;51.670;7.788;2023-03-16T05:39:24;3.70;1.00
11009;DHT22;5557;51.670;7.788;2023-03-16T05:41:52;3.70;1.00
11009;DHT22;5557;51.670;7.788;2023-03-16T05:44:20;3.70;1.00
11009;DHT22;5557;51.670;7.788;2023-03-16T05:46:47;3.70;1.00
11009;DHT22;5557;51.670;7.788;2023-03-16T05:49:14;3.70;1.00
11009;DHT22;5557;51.670;7.788;2023-03-16T05:51:41;3.70;1.00
11009;DHT22;5557;51.670;7.788;2023-03-16T05:54:09;3.70;1.00
11009;DHT22;5557;51.670;7.788;2023-03-16T05:56:36;3.80;1.00
11009;DHT22;5557;51.670;7.788;2023-03-16T05:59:02;3.90;1.00
11009;DHT22;5557;51.670;7.788;2023-03-16T06:01:30;4.00;1.00
11009;DHT22;5557;51.670;7.788;2023-03-16T06:03:56;4.00;1.00
11009;DHT22;5557;51.670;7.788;2023-03-16T06:06:24;3.90;1.00
11009;DHT22;5557;51.670;7.788;2023-03-16T06:08:51;4.00;1.00
11009;DHT22;5557;51.670;7.788;2023-03-16T06:11:18;3.90;1.00
11009;DHT22;5557;51.670;7.788;2023-03-16T06:13:45;3.90;1.00
11009;DHT22;5557;51.670;7.788;2023-03-16T06:16:11;4.00;1.00
11009;DHT22;5557;51.670;7.788;2023-03-16T06:18:40;4.00;1.00
11009;DHT22;5557;51.670;7.788;2023-03-16T06:21:07;4.00;1.00
11009;DHT22;5557;51.670;7.788;2023-03-16T06:23:34;4.10;1.00
11009;DHT22;5557;51.670;7.788;2023-03-16T06:26:01;4.00;1.00
11009;DHT22;5557;51.670;7.788;2023-03-16T06:28:28;4.10;1.00
11009;DHT22;5557;51.670;7.788;2023-03-16T06:30:58;4.10;1.00
11009;DHT22;5557;51.670;7.788;2023-03-16T06:33:25;4.10;1.00
11009;DHT22;5557;51.670;7.788;2023-03-16T06:35:53;4.20;1.00
11009;DHT22;5557;51.670;7.788;2023-03-16T06:38:20;4.20;1.00
11009;DHT22;5557;51.670;7.788;2023-03-16T06:40:53;4.30;1.00
11009;DHT22;5557;51.670;7.788;2023-03-16T06:43:20;4.30;1.00
11009;DHT22;5557;51.670;7.788;2023-03-16T06:45:47;4.40;1.00
11009;DHT22;5557;51.670;7.788;2023-03-16T06:48:14;4.40;1.00
11009;DHT22;5557;51.670;7.788;2023-03-16T06:50:41;4.50;1.00
11009;DHT22;5557;51.670;7.788;2023-03-16T06:53:10;4.50;1.00
11009;DHT22;5557;51.670;7.788;2023-03-16T06:55:37;4.60;1.00
11009;DHT22;5557;51.670;7.788;2023-03-16T06:58:04;4.70;1.00
11009;DHT22;5557;51.670;7.788;2023-03-16T07:00:31;4.80;1.00
11009;DHT22;5557;51.670;7.788;2023-03-16T07:03:00;4.90;1.00
11009;DHT22;5557;51.670;7.788;2023-03-16T07:05:27;5.00;1.00
11009;DHT22;5557;51.670;7.788;2023-03-16T07:07:54;5.10;1.00
11009;DHT22;5557;51.670;7.788;2023-03-16T07:10:22;5.20;1.00
11009;DHT22;5557;51.670;7.788;2023-03-16T07:12:50;5.30;1.00
11009;DHT22;5557;51.670;7.788;2023-03-16T07:15:17;5.40;1.00
11009;DHT22;5557;51.670;7.788;2023-03-16T07:17:45;5.50;1.00
11009;DHT22;5557;51.670;7.788;2023-03-16T07:20:12;5.60;1.00
11009;DHT22;5557;51.670;7.788;2023-03-16T07:22:39;5.60;1.00
11009;DHT22;5557;51.670;7.788;2023-03-16T07:25:08;5.70;1.00
11009;DHT22;5557;51.670;7.788;2023-03-16T07:27:37;5.90;1.00
11009;DHT22;5557;51.670;7.788;2023-03-16T07:30:05;6.10;1.00
11009;DHT22;5557;51.670;7.788;2023-03-16T07:32:32;6.30;1.00
11009;DHT22;5557;51.670;7.788;2023-03-16T07:34:59;6.40;1.00
11009;DHT22;5557;51.670;7.788;2023-03-16T07:37:27;6.50;1.00
11009;DHT22;5557;51.670;7.788;2023-03-16T07:39:54;6.50;1.00
11009;DHT22;5557;51.670;7.788;2023-03-16T07:42:21;6.40;1.00
11009;DHT22;5557;51.670;7.788;2023-03-16T07:44:48;6.40;1.00
11009;DHT22;5557;51.670;7.788;2023-03-16T07:47:17;6.40;1.00
11009;DHT22;5557;51.670;7.788;2023-03-16T07:49:44;6.40;1.00
11009;DHT22;5557;51.670;7.788;2023-03-16T07:52:11;6.50;1.00
11009;DHT22;5557;51.670;7.788;2023-03-16T07:54:41;6.50;1.00
11009;DHT22;5557;51.670;7.788;2023-03-16T07:57:09;6.50;1.00
11009;DHT22;5557;51.670;7.788;2023-03-16T07:59:35;6.60;1.00
11009;DHT22;5557;51.670;7.788;2023-03-16T08:02:04;6.80;1.00
11009;DHT22;5557;51.670;7.788;2023-03-16T08:04:31;6.90;1.00
11009;DHT22;5557;51.670;7.788;2023-03-16T08:06:58;7.00;1.00
11009;DHT22;5557;51.670;7.788;2023-03-16T08:09:27;7.10;1.00
11009;DHT22;5557;51.670;7.788;2023-03-16T08:11:54;7.10;1.00
11009;DHT22;5557;51.670;7.788;2023-03-16T08:14:21;7.00;1.00
11009;DHT22;5557;51.670;7.788;2023-03-16T08:16:49;6.90;1.00
11009;DHT22;5557;51.670;7.788;2023-03-16T08:19:16;6.90;1.00
11009;DHT22;5557;51.670;7.788;2023-03-16T08:21:43;7.10;1.00
11009;DHT22;5557;51.670;7.788;2023-03-16T08:24:27;7.20;1.00
11009;DHT22;5557;51.670;7.788;2023-03-16T08:26:55;7.20;1.00
11009;DHT22;5557;51.670;7.788;2023-03-16T08:29:24;7.30;1.00
11009;DHT22;5557;51.670;7.788;2023-03-16T08:31:55;7.40;1.00
11009;DHT22;5557;51.670;7.788;2023-03-16T08:34:24;7.60;1.00
11009;DHT22;5557;51.670;7.788;2023-03-16T08:36:52;7.80;1.00
11009;DHT22;5557;51.670;7.788;2023-03-16T08:39:19;8.00;1.00
11009;DHT22;5557;51.670;7.788;2023-03-16T08:41:47;8.00;1.00
11009;DHT22;5557;51.670;7.788;2023-03-16T08:44:14;8.00;1.00
11009;DHT22;5557;51.670;7.788;2023-03-16T08:46:41;8.00;1.00
11009;DHT22;5557;51.670;7.788;2023-03-16T08:49:08;8.00;1.00
11009;DHT22;5557;51.670;7.788;2023-03-16T08:51:35;7.90;1.00
11009;DHT22;5557;51.670;7.788;2023-03-16T08:54:02;8.10;1.00
11009;DHT22;5557;51.670;7.788;2023-03-16T08:56:29;8.10;1.00
11009;DHT22;5557;51.670;7.788;2023-03-16T08:58:56;8.30;1.00
11009;DHT22;5557;51.670;7.788;2023-03-16T09:01:25;8.50;1.00
11009;DHT22;5557;51.670;7.788;2023-03-16T09:03:52;8.50;1.00
11009;DHT22;5557;51.670;7.788;2023-03-16T09:06:20;8.40;1.00
11009;DHT22;5557;51.670;7.788;2023-03-16T09:08:48;8.30;1.00
11009;DHT22;5557;51.670;7.788;2023-03-16T09:11:16;8.30;1.00
11009;DHT22;5557;51.670;7.788;2023-03-16T09:13:45;8.20;1.00
11009;DHT22;5557;51.670;7.788;2023-03-16T09:16:13;8.20;1.00
11009;DHT22;5557;51.670;7.788;2023-03-16T09:18:42;8.20;1.00
11009;DHT22;5557;51.670;7.788;2023-03-16T09:21:10;8.40;1.00
11009;DHT22;5557;51.670;7.788;2023-03-16T09:23:40;8.40;1.00
11009;DHT22;5557;51.670;7.788;2023-03-16T09:26:08;8.50;1.00
11009;DHT22;5557;51.670;7.788;2023-03-16T09:28:36;8.40;1.00
11009;DHT22;5557;51.670;7.788;2023-03-16T09:31:05;8.50;1.00
11009;DHT22;5557;51.670;7.788;2023-03-16T09:33:34;8.70;1.00
11009;DHT22;5557;51.670;7.788;2023-03-16T09:36:02;8.60;1.00
11009;DHT22;5557;51.670;7.788;2023-03-16T09:38:29;8.60;1.00
11009;DHT22;5557;51.670;7.788;2023-03-16T09:41:06;8.50;1.00
11009;DHT22;5557;51.670;7.788;2023-03-16T09:46:59;8.60;1.00
11009;DHT22;5557;51.670;7.788;2023-03-16T09:49:43;8.60;1.00
11009;DHT22;5557;51.670;7.788;2023-03-16T09:52:25;8.50;1.00
11009;DHT22;5557;51.670;7.788;2023-03-16T09:55:00;8.40;1.00
11009;DHT22;5557;51.670;7.788;2023-03-16T09:57:33;8.40;1.00
11009;DHT22;5557;51.670;7.788;2023-03-16T10:00:16;8.30;1.00
11009;DHT22;5557;51.670;7.788;2023-03-16T10:06:01;8.60;1.00
11009;DHT22;5557;51.670;7.788;2023-03-16T10:08:38;8.80;1.00
11009;DHT22;5557;51.670;7.788;2023-03-16T10:11:32;8.70;1.00
11009;DHT22;5557;51.670;7.788;2023-03-16T10:14:24;8.60;1.00
11009;DHT22;5557;51.670;7.788;2023-03-16T10:17:11;8.60;1.00
11009;DHT22;5557;51.670;7.788;2023-03-16T10:19:51;8.60;1.00
11009;DHT22;5557;51.670;7.788;2023-03-16T10:22:25;8.70;1.00
11009;DHT22;5557;51.670;7.788;2023-03-16T10:24:58;8.70;1.00
11009;DHT22;5557;51.670;7.788;2023-03-16T10:27:37;8.70;1.00
11009;DHT22;5557;51.670;7.788;2023-03-16T10:30:25;8.80;1.00
11009;DHT22;5557;51.670;7.788;2023-03-16T10:33:02;8.90;1.00
11009;DHT22;5557;51.670;7.788;2023-03-16T10:35:51;9.10;1.00
11009;DHT22;5557;51.670;7.788;2023-03-16T10:41:27;9.20;1.00
11009;DHT22;5557;51.670;7.788;2023-03-16T10:44:15;9.30;1.00
11009;DHT22;5557;51.670;7.788;2023-03-16T10:46:47;9.40;1.00
11009;DHT22;5557;51.670;7.788;2023-03-16T10:49:37;9.40;1.00
11009;DHT22;5557;51.670;7.788;2023-03-16T10:55:22;9.30;1.00
11009;DHT22;5557;51.670;7.788;2023-03-16T10:58:25;9.40;1.00
11009;DHT22;5557;51.670;7.788;2023-03-16T11:01:23;9.10;1.00
11009;DHT22;5557;51.670;7.788;2023-03-16T11:03:54;9.20;1.00
11009;DHT22;5557;51.670;7.788;2023-03-16T11:06:28;9.10;1.00
11009;DHT22;5557;51.670;7.788;2023-03-16T11:09:04;9.00;1.00
11009;DHT22;5557;51.670;7.788;2023-03-16T11:11:35;9.30;1.00
11009;DHT22;5557;51.670;7.788;2023-03-16T11:14:08;9.40;1.00
11009;DHT22;5557;51.670;7.788;2023-03-16T11:17:22;9.60;1.00
11009;DHT22;5557;51.670;7.788;2023-03-16T11:19:32;9.90;1.00
11009;DHT22;5557;51.670;7.788;2023-03-16T11:22:09;10.00;1.00
11009;DHT22;5557;51.670;7.788;2023-03-16T11:24:47;10.20;1.00
11009;DHT22;5557;51.670;7.788;2023-03-16T11:27:36;10.00;1.00
11009;DHT22;5557;51.670;7.788;2023-03-16T11:30:15;10.00;1.00
11009;DHT22;5557;51.670;7.788;2023-03-16T11:32:55;10.30;1.00
11009;DHT22;5557;51.670;7.788;2023-03-16T11:36:37;10.50;1.00
11009;DHT22;5557;51.670;7.788;2023-03-16T11:39:26;10.50;1.00
11009;DHT22;5557;51.670;7.788;2023-03-16T11:42:03;10.70;1.00
11009;DHT22;5557;51.670;7.788;2023-03-16T11:48:18;10.30;1.00
11009;DHT22;5557;51.670;7.788;2023-03-16T11:51:04;10.00;1.00
11009;DHT22;5557;51.670;7.788;2023-03-16T11:53:59;9.80;1.00
11009;DHT22;5557;51.670;7.788;2023-03-16T11:56:38;9.70;1.00
11009;DHT22;5557;51.670;7.788;2023-03-16T12:00:06;9.40;1.00
11009;DHT22;5557;51.670;7.788;2023-03-16T12:03:18;9.10;1.00
11009;DHT22;5557;51.670;7.788;2023-03-16T12:08:51;9.00;1.00
11009;DHT22;5557;51.670;7.788;2023-03-16T12:11:29;9.10;1.00
11009;DHT22;5557;51.670;7.788;2023-03-16T12:14:17;9.20;1.00
11009;DHT22;5557;51.670;7.788;2023-03-16T12:17:08;9.20;1.00
11009;DHT22;5557;51.670;7.788;2023-03-16T12:19:51;9.30;1.00
11009;DHT22;5557;51.670;7.788;2023-03-16T12:25:22;9.30;1.00
11009;DHT22;5557;51.670;7.788;2023-03-16T12:27:55;9.20;1.00
11009;DHT22;5557;51.670;7.788;2023-03-16T12:42:38;9.90;1.00
11009;DHT22;5557;51.670;7.788;2023-03-16T12:45:42;9.90;1.00
11009;DHT22;5557;51.670;7.788;2023-03-16T12:48:31;9.80;1.00
11009;DHT22;5557;51.670;7.788;2023-03-16T12:51:01;9.80;1.00
11009;DHT22;5557;51.670;7.788;2023-03-16T12:53:42;9.90;1.00
11009;DHT22;5557;51.670;7.788;2023-03-16T12:56:15;10.30;1.00
11009;DHT22;5557;51.670;7.788;2023-03-16T12:58:55;10.30;1.00
11009;DHT22;5557;51.670;7.788;2023-03-16T13:01:36;10.20;1.00
11009;DHT22;5557;51.670;7.788;2023-03-16T13:04:30;10.30;1.00
11009;DHT22;5557;51.670;7.788;2023-03-16T13:07:19;10.30;1.00
11009;DHT22;5557;51.670;7.788;2023-03-16T13:10:02;10.20;1.00
11009;DHT22;5557;51.670;7.788;2023-03-16T13:12:32;10.20;1.00
11009;DHT22;5557;51.670;7.788;2023-03-16T13:15:25;10.30;1.00
11009;DHT22;5557;51.670;7.788;2023-03-16T13:21:00;10.20;1.00
11009;DHT22;5557;51.670;7.788;2023-03-16T13:23:46;10.10;1.00
11009;DHT22;5557;51.670;7.788;2023-03-16T13:26:25;10.00;1.00
11009;DHT22;5557;51.670;7.788;2023-03-16T13:29:27;10.10;1.00
11009;DHT22;5557;51.670;7.788;2023-03-16T13:32:06;10.20;1.00
11009;DHT22;5557;51.670;7.788;2023-03-16T13:34:39;10.20;1.00
11009;DHT22;5557;51.670;7.788;2023-03-16T13:37:14;10.20;1.00
11009;DHT22;5557;51.670;7.788;2023-03-16T13:39:57;10.30;1.00
11009;DHT22;5557;51.670;7.788;2023-03-16T13:42:29;10.40;1.00
11009;DHT22;5557;51.670;7.788;2023-03-16T13:45:06;10.60;1.00
11009;DHT22;5557;51.670;7.788;2023-03-16T13:47:33;10.60;1.00
11009;DHT22;5557;51.670;7.788;2023-03-16T13:50:00;10.50;1.00
11009;DHT22;5557;51.670;7.788;2023-03-16T13:52:32;10.50;1.00
11009;DHT22;5557;51.670;7.788;2023-03-16T13:55:14;10.60;1.00
11009;DHT22;5557;51.670;7.788;2023-03-16T13:57:43;10.50;1.00
11009;DHT22;5557;51.670;7.788;2023-03-16T14:02:45;10.60;1.00
11009;DHT22;5557;51.670;7.788;2023-03-16T14:05:28;10.70;1.00
11009;DHT22;5557;51.670;7.788;2023-03-16T14:07:57;10.90;1.00
11009;DHT22;5557;51.670;7.788;2023-03-16T14:10:32;10.80;1.00
11009;DHT22;5557;51.670;7.788;2023-03-16T14:13:08;10.80;1.00
11009;DHT22;5557;51.670;7.788;2023-03-16T14:15:36;10.70;1.00
11009;DHT22;5557;51.670;7.788;2023-03-16T14:18:16;10.70;1.00
11009;DHT22;5557;51.670;7.788;2023-03-16T14:20:53;10.80;1.00
11009;DHT22;5557;51.670;7.788;2023-03-16T14:23:28;10.90;1.00
11009;DHT22;5557;51.670;7.788;2023-03-16T14:25:56;10.70;1.00
11009;DHT22;5557;51.670;7.788;2023-03-16T14:28:30;10.60;1.00
11009;DHT22;5557;51.670;7.788;2023-03-16T14:31:08;10.60;1.00
11009;DHT22;5557;51.670;7.788;2023-03-16T14:33:39;10.50;1.00
11009;DHT22;5557;51.670;7.788;2023-03-16T14:36:12;10.60;1.00
11009;DHT22;5557;51.670;7.788;2023-03-16T14:38:41;10.60;1.00
11009;DHT22;5557;51.670;7.788;2023-03-16T14:41:21;10.40;1.00
11009;DHT22;5557;51.670;7.788;2023-03-16T14:43:53;10.50;1.00
11009;DHT22;5557;51.670;7.788;2023-03-16T14:46:39;10.50;1.00
11009;DHT22;5557;51.670;7.788;2023-03-16T14:49:18;10.50;1.00
11009;DHT22;5557;51.670;7.788;2023-03-16T14:51:48;10.60;1.00
11009;DHT22;5557;51.670;7.788;2023-03-16T14:54:18;10.60;1.00
11009;DHT22;5557;51.670;7.788;2023-03-16T14:56:50;10.80;1.00
11009;DHT22;5557;51.670;7.788;2023-03-16T14:59:19;10.90;1.00
11009;DHT22;5557;51.670;7.788;2023-03-16T15:01:46;10.90;1.00
11009;DHT22;5557;51.670;7.788;2023-03-16T15:04:18;10.90;1.00
11009;DHT22;5557;51.670;7.788;2023-03-16T15:06:46;11.10;1.00
11009;DHT22;5557;51.670;7.788;2023-03-16T15:09:37;11.00;1.00
11009;DHT22;5557;51.670;7.788;2023-03-16T15:12:18;10.90;1.00
11009;DHT22;5557;51.670;7.788;2023-03-16T15:14:46;10.90;1.00
11009;DHT22;5557;51.670;7.788;2023-03-16T15:17:32;10.90;1.00
11009;DHT22;5557;51.670;7.788;2023-03-16T15:19:59;10.90;1.00
11009;DHT22;5557;51.670;7.788;2023-03-16T15:22:32;10.90;1.00
11009;DHT22;5557;51.670;7.788;2023-03-16T15:25:17;10.90;1.00
11009;DHT22;5557;51.670;7.788;2023-03-16T15:27:46;10.80;1.00
11009;DHT22;5557;51.670;7.788;2023-03-16T15:30:19;10.80;1.00
11009;DHT22;5557;51.670;7.788;2023-03-16T15:32:48;10.80;1.00
11009;DHT22;5557;51.670;7.788;2023-03-16T15:35:15;10.90;1.00
11009;DHT22;5557;51.670;7.788;2023-03-16T15:37:43;11.00;1.00
11009;DHT22;5557;51.670;7.788;2023-03-16T15:40:19;11.00;1.00
11009;DHT22;5557;51.670;7.788;2023-03-16T15:42:47;11.00;1.00
11009;DHT22;5557;51.670;7.788;2023-03-16T15:45:16;11.00;1.00
11009;DHT22;5557;51.670;7.788;2023-03-16T15:47:44;11.00;1.00
11009;DHT22;5557;51.670;7.788;2023-03-16T15:50:12;11.00;1.00
11009;DHT22;5557;51.670;7.788;2023-03-16T15:52:48;10.90;1.00
11009;DHT22;5557;51.670;7.788;2023-03-16T15:55:20;10.90;1.00
11009;DHT22;5557;51.670;7.788;2023-03-16T15:57:53;10.90;1.00
11009;DHT22;5557;51.670;7.788;2023-03-16T16:00:32;10.90;1.00
11009;DHT22;5557;51.670;7.788;2023-03-16T16:03:01;10.90;1.00
11009;DHT22;5557;51.670;7.788;2023-03-16T16:05:28;10.90;1.00
11009;DHT22;5557;51.670;7.788;2023-03-16T16:07:57;10.90;1.00
11009;DHT22;5557;51.670;7.788;2023-03-16T16:10:25;10.90;1.00
11009;DHT22;5557;51.670;7.788;2023-03-16T16:12:53;10.80;1.00
11009;DHT22;5557;51.670;7.788;2023-03-16T16:15:28;10.80;1.00
11009;DHT22;5557;51.670;7.788;2023-03-16T16:17:57;10.80;1.00
11009;DHT22;5557;51.670;7.788;2023-03-16T16:20:44;10.80;1.00
11009;DHT22;5557;51.670;7.788;2023-03-16T16:23:10;10.80;1.00
11009;DHT22;5557;51.670;7.788;2023-03-16T16:25:39;10.70;1.00
11009;DHT22;5557;51.670;7.788;2023-03-16T16:28:19;10.70;1.00
11009;DHT22;5557;51.670;7.788;2023-03-16T16:30:47;10.70;1.00
11009;DHT22;5557;51.670;7.788;2023-03-16T16:33:26;10.70;1.00
11009;DHT22;5557;51.670;7.788;2023-03-16T16:35:55;10.60;1.00
11009;DHT22;5557;51.670;7.788;2023-03-16T16:38:23;10.60;1.00
11009;DHT22;5557;51.670;7.788;2023-03-16T16:40:51;10.60;1.00
11009;DHT22;5557;51.670;7.788;2023-03-16T16:43:47;10.50;1.00
11009;DHT22;5557;51.670;7.788;2023-03-16T16:46:17;10.50;1.00
11009;DHT22;5557;51.670;7.788;2023-03-16T16:48:46;10.50;1.00
11009;DHT22;5557;51.670;7.788;2023-03-16T16:51:22;10.50;1.00
11009;DHT22;5557;51.670;7.788;2023-03-16T16:53:54;10.50;1.00
11009;DHT22;5557;51.670;7.788;2023-03-16T16:56:29;10.50;1.00
11009;DHT22;5557;51.670;7.788;2023-03-16T16:58:59;10.50;1.00
11009;DHT22;5557;51.670;7.788;2023-03-16T17:01:29;10.50;1.00
11009;DHT22;5557;51.670;7.788;2023-03-16T17:03:59;10.40;1.00
11009;DHT22;5557;51.670;7.788;2023-03-16T17:06:26;10.40;1.00
11009;DHT22;5557;51.670;7.788;2023-03-16T17:08:53;10.40;1.00
11009;DHT22;5557;51.670;7.788;2023-03-16T17:11:28;10.30;1.00
11009;DHT22;5557;51.670;7.788;2023-03-16T17:14:04;10.30;1.00
11009;DHT22;5557;51.670;7.788;2023-03-16T17:16:36;10.20;1.00
11009;DHT22;5557;51.670;7.788;2023-03-16T17:19:05;10.10;1.00
11009;DHT22;5557;51.670;7.788;2023-03-16T17:21:32;10.10;1.00
11009;DHT22;5557;51.670;7.788;2023-03-16T17:24:00;10.00;1.00
11009;DHT22;5557;51.670;7.788;2023-03-16T17:26:30;9.90;1.00